Aviation Digital Data Service (ADDS)

Output produced by METARs form (1345 UTC 20 August 2017)
found at http://www.aviationweather.gov/adds/metars/
 
OEAB 201300Z 03010KT 9999 SCT020 32/M01 Q1019 NOSIG
TAF OEAB 201100Z 2012/2118 20015KT 9999 SCT020 SCT080 
     TEMPO 2012/2018 VRB20KT 6000 TSRA BKN020 FEW025CB 
     BECMG 2018/2020 VRB03KT
       
OEAH 201300Z 05009KT CAVOK 45/11 Q0999 NOSIG
TAF OEAH 201100Z 2012/2118 06013KT 6000 FEW040 SCT100 
     BECMG 2022/2024 VRB03KT 
     PROB30 
     TEMPO 2100/2105 4000 BR HZ
       
OEBA 201300Z 10010KT 9999 BKN030 35/09 Q1015 NOSIG
TAF OEBA 201100Z 2012/2118 06016KT 7000 SCT030 
     TEMPO 2012/2018 VRB20KT 4000 BLDU TSRA FEW025CB BKN030 
     BECMG 2018/2020 30006KT
       
OESK 201300Z 04009KT 9999 FEW040 45/03 Q1009 NOSIG
TAF OESK 201100Z 2012/2118 10006G16KT 6000 FEW040 SCT100 
     BECMG 2020/2022 VRB03KT
       
OERR 201300Z 06004KT CAVOK 44/18 Q1008 NOSIG
TAF OERR 201100Z 2012/2118 08013KT 7000 FEW040 
     BECMG 2022/2024 VRB03KT
       
OEBH 201200Z 06006KT 9999 SCT030 39/05 Q1010
TAF OEBH 201100Z 2012/2118 06015KT 6000 SCT030 
     TEMPO 2012/2018 VRB20KT 4000 TSRA BLDU FEW035CB 
     BECMG 2018/2020 VRB03KT
       
OEGS 201300Z 02014KT CAVOK 46/10 Q1007
TAF OEGS 201100Z 2012/2118 06008G18KT 7000 FEW040 
     TEMPO 2012/2018 4000 DU BLDU
       
OEGT 201300Z 23006KT CAVOK 41/01 Q1007 NOSIG
TAF OEGT 201100Z 2012/2118 33012G22KT 6000 FEW040 SCT100
       
OEHL 201300Z 03006KT CAVOK 42/07 Q1012
TAF OEHL 201100Z 2012/2118 06006G16KT 6000 FEW040
       
OEGN 201300Z 19012KT 9000 FEW030 SCT100 37/28 Q1001 NOSIG
TAF OEGN 201100Z 2012/2118 20014KT 7000 SCT030 
     TEMPO 2012/2018 VRB20KT 4000 BLDU TSRA BKN030 FEW035CB SCT100 
     BECMG 2018/2020 VRB03KT
       
OEDR 201300Z 09006KT 6000 NSC 40/26 Q0997 NOSIG
TAF OEDR 200900Z 2012/2118 07012KT 7000 NSC 
     BECMG 2016/2018 VRB03KT 
     TEMPO 2022/2106 4000 HZ
       
OEJN 201300Z 30013KT 9999 FEW040 35/26 Q1000 NOSIG
TAF OEJN 201100Z 2012/2118 30008G18KT 9999 FEW040 SCT100 
     TEMPO 2012/2018 7000 FEW035CB SCT040 
     PROB30 
     TEMPO 2014/2018 VRB20KT 3000 BLDU TS
       
OEDF 201300Z 04007KT 8000 NSC 41/25 Q0998 NOSIG
TAF OEDF 200900Z 2012/2118 07012KT 7000 NSC 
     BECMG 2016/2018 VRB03KT 
     TEMPO 2022/2106 4000 HZ
       
OEKM 201300Z 08010KT 9999 SCT022 FEW025CB 33/M01 Q1018 NOSIG
TAF OEKM 201100Z 2012/2118 20015KT 9999 SCT020 SCT080 
     TEMPO 2012/2018 VRB20KT 6000 TSRA BKN020 FEW025CB 
     BECMG 2018/2020 VRB03KT
       
OERK 201300Z 02018G28KT 3000 DU NSC 43/M03 Q1006 NOSIG
TAF OERK 201100Z 2012/2118 04006G16KT 7000 FEW040 
     TEMPO 2012/2018 4000 DU BLDU 
     PROB30 
     TEMPO 2012/2016 2000
       
OEKK 201300Z 36014KT CAVOK 46/10 Q1005 NOSIG
TAF OEKK 200300Z 2006/2020 15014KT 7000 FEW040 
     BECMG 2010/2012 21012KT 
     TEMPO 2010/2016 4000 BLDU
       
OENG 201300Z 10009KT 9999 BKN030 38/06 Q1009 NOSIG
TAF OENG 201100Z 2012/2118 08006G16KT 7000 SCT040 SCT100 
     TEMPO 2012/2018 4000 BLDU TS FEW035CB BKN100 
     BECMG 2016/2018 26006KT
       
OEMA 201300Z 08010KT 8000 SCT040 44/M08 Q1008 NOSIG
TAF OEMA 201100Z 2012/2118 09013KT 7000 SCT045 
     TEMPO 2012/2018 3500 DU 
     PROB30 
     TEMPO 2014/2018 FEW035CB
       
OEPA 201300Z 36015KT 3000 BLDU SKC 47/16 Q1004 NOSIG
TAF OEPA 201100Z 2012/2118 34010G20KT 8000 SKC 
     TEMPO 2012/2018 4000 DU BLDU 
     PROB30 
     TEMPO 2012/2016 2000
       
OERF 201300Z 36014KT CAVOK 43/03 Q1006
TAF OERF 201100Z 2012/2118 36010G20KT 7000 FEW040 
     TEMPO 2012/2018 4000 DU BLDU 
     PROB30 
     TEMPO 2012/2016 2000
       
TAF OERY 201100Z 2012/2118 04006G16KT 7000 FEW040 SCT100 
     TEMPO 2012/2020 4000 DU BLDU 
     PROB30 
     TEMPO 2012/2016 2000 
     BECMG 2020/2022 30006KT
       
OESH 201300Z 03007KT 9999 SCT040 SCT090 41/11 Q1003 NOSIG
TAF OESH 201100Z 2012/2118 06013KT 6000 FEW040 SCT100 
     BECMG 2016/2018 24008KT
       
OETB 201300Z 31011KT 9999 FEW040 42/06 Q1009 NOSIG
TAF OETB 201100Z 2012/2118 24010G20KT 7000 FEW040 SCT100 
     TEMPO 2012/2020 4000 DU BLDU SCT040 
     PROB30 
     TEMPO 2014/2018 TS FEW035CB 
     BECMG 2018/2020 29006KT
       
OETF 201300Z 15006KT 9999 FEW025CB SCT030 37/06 Q1014 NOSIG
TAF OETF 201100Z 2012/2118 08013KT 6000 SCT030 SCT080 
     TEMPO 2012/2018 VRB20KT 4000 BLDU TSRA FEW025CB 
     BECMG 2014/2016 29015KT
       
OETR 201300Z 19018KT CAVOK 42/11 Q1011
TAF OETR 201100Z 2012/2118 19014KT 7000 SCT040 SCT100 
     BECMG 2018/2020 12013KT
       
OEWD 201200Z 04009KT CAVOK 44/19 Q1003 NOSIG
TAF OEWD 201100Z 2012/2118 06006G16KT 7000 FEW040 SCT100 
     TEMPO 2012/2018 4000 DU BLDU SCT040 
     PROB30 
     TEMPO 2012/2016 2000 
     BECMG 2020/2022 33006KT
       
OEWJ 201300Z 30017KT 8000 SKC 33/27 Q1003 NOSIG
TAF OEWJ 201100Z 2012/2118 30010G20KT 7000 FEW040 SCT100 
     BECMG 2022/2024 VRB03KT 
     PROB30 
     TEMPO 2100/2105 4000 BR
       
OEYN 201300Z 28024KT CAVOK 47/17 Q0998 NOSIG
TAF OEYN 201100Z 2012/2118 29012G22KT 8000 FEW040 SCT100 
     TEMPO 2012/2018 4000 DU BLDU SCT040 
     PROB30 
     TEMPO 2015/2018 TS FEW035CB